sensor_id;sensor_type;location;lat;lon;timestamp;P1;durP1;ratioP1;P2;durP2;ratioP2
52618;SDS011;38513;53.234;6.568;2022-09-13T00:00:25;31.92;;;25.63;;
52618;SDS011;38513;53.234;6.568;2022-09-13T00:02:51;33.60;;;27.55;;
52618;SDS011;38513;53.234;6.568;2022-09-13T00:05:17;34.28;;;27.10;;
52618;SDS011;38513;53.234;6.568;2022-09-13T00:07:43;35.60;;;27.45;;
52618;SDS011;38513;53.234;6.568;2022-09-13T00:10:10;34.03;;;26.58;;
52618;SDS011;38513;53.234;6.568;2022-09-13T00:12:36;35.00;;;27.23;;
52618;SDS011;38513;53.234;6.568;2022-09-13T00:15:02;35.10;;;26.35;;
52618;SDS011;38513;53.234;6.568;2022-09-13T00:17:28;34.10;;;26.70;;
52618;SDS011;38513;53.234;6.568;2022-09-13T00:19:55;32.47;;;25.50;;
52618;SDS011;38513;53.234;6.568;2022-09-13T00:22:21;32.28;;;24.52;;
52618;SDS011;38513;53.234;6.568;2022-09-13T00:24:47;30.92;;;23.92;;
52618;SDS011;38513;53.234;6.568;2022-09-13T00:27:13;33.17;;;25.00;;
52618;SDS011;38513;53.234;6.568;2022-09-13T00:29:40;34.85;;;25.55;;
52618;SDS011;38513;53.234;6.568;2022-09-13T00:32:06;35.83;;;25.92;;
52618;SDS011;38513;53.234;6.568;2022-09-13T00:34:32;33.17;;;24.30;;
52618;SDS011;38513;53.234;6.568;2022-09-13T00:36:58;35.63;;;25.17;;
52618;SDS011;38513;53.234;6.568;2022-09-13T00:39:24;31.27;;;22.85;;
52618;SDS011;38513;53.234;6.568;2022-09-13T00:41:50;29.13;;;22.65;;
52618;SDS011;38513;53.234;6.568;2022-09-13T00:47:01;30.50;;;21.83;;
52618;SDS011;38513;53.234;6.568;2022-09-13T00:49:30;30.00;;;22.73;;
52618;SDS011;38513;53.234;6.568;2022-09-13T00:51:59;33.22;;;23.52;;
52618;SDS011;38513;53.234;6.568;2022-09-13T00:54:28;31.88;;;23.42;;
52618;SDS011;38513;53.234;6.568;2022-09-13T00:56:56;33.60;;;24.33;;
52618;SDS011;38513;53.234;6.568;2022-09-13T00:59:25;36.75;;;25.42;;
52618;SDS011;38513;53.234;6.568;2022-09-13T01:01:53;40.50;;;27.02;;
52618;SDS011;38513;53.234;6.568;2022-09-13T01:04:21;36.95;;;25.80;;
52618;SDS011;38513;53.234;6.568;2022-09-13T01:06:48;37.45;;;26.17;;
52618;SDS011;38513;53.234;6.568;2022-09-13T01:09:17;40.72;;;28.92;;
52618;SDS011;38513;53.234;6.568;2022-09-13T01:11:47;41.30;;;28.85;;
52618;SDS011;38513;53.234;6.568;2022-09-13T01:14:15;43.75;;;29.92;;
52618;SDS011;38513;53.234;6.568;2022-09-13T01:16:42;37.72;;;27.23;;
52618;SDS011;38513;53.234;6.568;2022-09-13T01:19:09;38.70;;;27.30;;
52618;SDS011;38513;53.234;6.568;2022-09-13T01:37:04;31.67;;;23.33;;
52618;SDS011;38513;53.234;6.568;2022-09-13T01:39:35;29.85;;;21.38;;
52618;SDS011;38513;53.234;6.568;2022-09-13T01:42:13;28.02;;;20.55;;
52618;SDS011;38513;53.234;6.568;2022-09-13T01:53:06;26.45;;;18.05;;
52618;SDS011;38513;53.234;6.568;2022-09-13T01:55:34;24.00;;;18.27;;
52618;SDS011;38513;53.234;6.568;2022-09-13T02:00:28;23.98;;;18.52;;
52618;SDS011;38513;53.234;6.568;2022-09-13T02:05:29;24.60;;;18.90;;
52618;SDS011;38513;53.234;6.568;2022-09-13T02:07:58;25.02;;;19.77;;
52618;SDS011;38513;53.234;6.568;2022-09-13T02:10:34;25.35;;;20.20;;
52618;SDS011;38513;53.234;6.568;2022-09-13T02:13:03;26.00;;;20.20;;
52618;SDS011;38513;53.234;6.568;2022-09-13T02:15:33;26.10;;;19.85;;
52618;SDS011;38513;53.234;6.568;2022-09-13T02:18:08;25.30;;;19.88;;
52618;SDS011;38513;53.234;6.568;2022-09-13T02:20:36;27.67;;;19.80;;
52618;SDS011;38513;53.234;6.568;2022-09-13T02:23:25;24.33;;;19.40;;
52618;SDS011;38513;53.234;6.568;2022-09-13T02:25:49;25.48;;;18.95;;
52618;SDS011;38513;53.234;6.568;2022-09-13T02:28:18;26.83;;;19.92;;
52618;SDS011;38513;53.234;6.568;2022-09-13T02:30:47;26.57;;;19.23;;
52618;SDS011;38513;53.234;6.568;2022-09-13T02:33:15;25.77;;;19.23;;
52618;SDS011;38513;53.234;6.568;2022-09-13T02:38:22;26.40;;;19.17;;
52618;SDS011;38513;53.234;6.568;2022-09-13T02:40:59;24.58;;;19.20;;
52618;SDS011;38513;53.234;6.568;2022-09-13T02:43:33;28.02;;;19.70;;
52618;SDS011;38513;53.234;6.568;2022-09-13T02:51:33;28.88;;;20.38;;
52618;SDS011;38513;53.234;6.568;2022-09-13T02:54:07;28.25;;;21.30;;
52618;SDS011;38513;53.234;6.568;2022-09-13T02:56:49;28.75;;;20.40;;
52618;SDS011;38513;53.234;6.568;2022-09-13T02:59:16;31.13;;;21.70;;
52618;SDS011;38513;53.234;6.568;2022-09-13T03:01:46;33.25;;;22.77;;
52618;SDS011;38513;53.234;6.568;2022-09-13T03:04:14;28.25;;;20.33;;
52618;SDS011;38513;53.234;6.568;2022-09-13T03:06:40;15.50;;;9.80;;
52618;SDS011;38513;53.234;6.568;2022-09-13T03:09:06;15.68;;;9.18;;
52618;SDS011;38513;53.234;6.568;2022-09-13T03:22:06;8.20;;;3.58;;
52618;SDS011;38513;53.234;6.568;2022-09-13T03:24:46;7.72;;;3.42;;
52618;SDS011;38513;53.234;6.568;2022-09-13T03:29:58;8.70;;;3.83;;
52618;SDS011;38513;53.234;6.568;2022-09-13T03:38:00;11.10;;;5.68;;
52618;SDS011;38513;53.234;6.568;2022-09-13T03:43:31;12.18;;;6.75;;
52618;SDS011;38513;53.234;6.568;2022-09-13T03:45:51;12.70;;;7.00;;
52618;SDS011;38513;53.234;6.568;2022-09-13T03:48:19;12.23;;;6.90;;
52618;SDS011;38513;53.234;6.568;2022-09-13T03:50:46;10.80;;;5.75;;
52618;SDS011;38513;53.234;6.568;2022-09-13T03:53:14;10.68;;;5.30;;
52618;SDS011;38513;53.234;6.568;2022-09-13T03:55:43;8.05;;;4.30;;
52618;SDS011;38513;53.234;6.568;2022-09-13T03:58:13;7.57;;;3.20;;
52618;SDS011;38513;53.234;6.568;2022-09-13T04:00:46;7.57;;;2.83;;
52618;SDS011;38513;53.234;6.568;2022-09-13T04:03:12;6.15;;;2.38;;
52618;SDS011;38513;53.234;6.568;2022-09-13T04:05:39;6.80;;;2.00;;
52618;SDS011;38513;53.234;6.568;2022-09-13T04:08:05;6.85;;;1.98;;
52618;SDS011;38513;53.234;6.568;2022-09-13T04:10:32;6.72;;;1.70;;
52618;SDS011;38513;53.234;6.568;2022-09-13T04:12:58;6.13;;;1.80;;
52618;SDS011;38513;53.234;6.568;2022-09-13T04:15:26;6.60;;;1.60;;
52618;SDS011;38513;53.234;6.568;2022-09-13T04:17:52;5.78;;;1.60;;
52618;SDS011;38513;53.234;6.568;2022-09-13T04:20:18;6.10;;;1.80;;
52618;SDS011;38513;53.234;6.568;2022-09-13T04:22:54;6.63;;;1.80;;
52618;SDS011;38513;53.234;6.568;2022-09-13T04:25:21;5.65;;;1.85;;
52618;SDS011;38513;53.234;6.568;2022-09-13T04:27:52;7.38;;;2.20;;
52618;SDS011;38513;53.234;6.568;2022-09-13T04:30:19;8.10;;;2.22;;
52618;SDS011;38513;53.234;6.568;2022-09-13T04:32:46;7.45;;;2.10;;
52618;SDS011;38513;53.234;6.568;2022-09-13T04:35:15;7.47;;;2.08;;
52618;SDS011;38513;53.234;6.568;2022-09-13T04:37:44;7.13;;;2.03;;
52618;SDS011;38513;53.234;6.568;2022-09-13T04:40:10;7.30;;;2.20;;
52618;SDS011;38513;53.234;6.568;2022-09-13T04:42:38;7.05;;;2.20;;
52618;SDS011;38513;53.234;6.568;2022-09-13T04:45:04;7.20;;;2.20;;
52618;SDS011;38513;53.234;6.568;2022-09-13T04:47:33;7.65;;;2.00;;
52618;SDS011;38513;53.234;6.568;2022-09-13T04:50:00;5.97;;;2.08;;
52618;SDS011;38513;53.234;6.568;2022-09-13T04:52:34;6.95;;;2.25;;
52618;SDS011;38513;53.234;6.568;2022-09-13T04:55:00;6.45;;;2.03;;
52618;SDS011;38513;53.234;6.568;2022-09-13T04:57:32;8.88;;;2.35;;
52618;SDS011;38513;53.234;6.568;2022-09-13T05:00:03;7.88;;;2.58;;
52618;SDS011;38513;53.234;6.568;2022-09-13T05:02:30;9.00;;;2.60;;
52618;SDS011;38513;53.234;6.568;2022-09-13T05:05:01;8.57;;;2.23;;
52618;SDS011;38513;53.234;6.568;2022-09-13T05:11:06;7.57;;;2.38;;
52618;SDS011;38513;53.234;6.568;2022-09-13T05:20:20;6.53;;;3.13;;
52618;SDS011;38513;53.234;6.568;2022-09-13T05:25:56;7.07;;;3.40;;
52618;SDS011;38513;53.234;6.568;2022-09-13T05:28:25;7.40;;;3.70;;
52618;SDS011;38513;53.234;6.568;2022-09-13T05:30:58;8.50;;;3.80;;
52618;SDS011;38513;53.234;6.568;2022-09-13T05:33:28;9.77;;;4.13;;
52618;SDS011;38513;53.234;6.568;2022-09-13T05:35:54;11.52;;;4.40;;
52618;SDS011;38513;53.234;6.568;2022-09-13T05:38:21;11.18;;;3.70;;
52618;SDS011;38513;53.234;6.568;2022-09-13T05:40:47;14.07;;;3.60;;
52618;SDS011;38513;53.234;6.568;2022-09-13T05:43:15;12.68;;;3.08;;
52618;SDS011;38513;53.234;6.568;2022-09-13T05:45:41;13.32;;;3.00;;
52618;SDS011;38513;53.234;6.568;2022-09-13T05:48:10;15.75;;;3.30;;
52618;SDS011;38513;53.234;6.568;2022-09-13T05:50:36;12.35;;;3.03;;
52618;SDS011;38513;53.234;6.568;2022-09-13T05:53:03;15.80;;;3.13;;
52618;SDS011;38513;53.234;6.568;2022-09-13T05:55:30;16.88;;;2.70;;
52618;SDS011;38513;53.234;6.568;2022-09-13T05:57:56;12.52;;;2.85;;
52618;SDS011;38513;53.234;6.568;2022-09-13T06:00:22;10.00;;;2.40;;
52618;SDS011;38513;53.234;6.568;2022-09-13T06:02:48;13.02;;;2.88;;
52618;SDS011;38513;53.234;6.568;2022-09-13T06:05:18;14.27;;;2.80;;
52618;SDS011;38513;53.234;6.568;2022-09-13T06:07:45;14.00;;;3.10;;
52618;SDS011;38513;53.234;6.568;2022-09-13T06:10:11;10.52;;;2.38;;
52618;SDS011;38513;53.234;6.568;2022-09-13T06:12:39;9.90;;;2.72;;
52618;SDS011;38513;53.234;6.568;2022-09-13T06:15:05;13.90;;;2.75;;
52618;SDS011;38513;53.234;6.568;2022-09-13T06:17:33;15.38;;;3.20;;
52618;SDS011;38513;53.234;6.568;2022-09-13T06:19:59;12.20;;;2.72;;
52618;SDS011;38513;53.234;6.568;2022-09-13T06:22:25;11.10;;;2.78;;
52618;SDS011;38513;53.234;6.568;2022-09-13T06:25:06;11.60;;;2.90;;
52618;SDS011;38513;53.234;6.568;2022-09-13T06:27:33;13.05;;;2.95;;
52618;SDS011;38513;53.234;6.568;2022-09-13T06:30:00;10.77;;;2.80;;
52618;SDS011;38513;53.234;6.568;2022-09-13T06:32:26;13.80;;;2.60;;
52618;SDS011;38513;53.234;6.568;2022-09-13T06:34:52;12.88;;;2.72;;
52618;SDS011;38513;53.234;6.568;2022-09-13T06:37:18;10.00;;;2.63;;
52618;SDS011;38513;53.234;6.568;2022-09-13T06:39:46;12.90;;;2.60;;
52618;SDS011;38513;53.234;6.568;2022-09-13T06:42:15;10.93;;;2.50;;
52618;SDS011;38513;53.234;6.568;2022-09-13T06:44:41;11.07;;;2.63;;
52618;SDS011;38513;53.234;6.568;2022-09-13T06:47:10;12.97;;;2.90;;
52618;SDS011;38513;53.234;6.568;2022-09-13T06:49:36;13.90;;;3.00;;
52618;SDS011;38513;53.234;6.568;2022-09-13T06:52:08;13.05;;;2.35;;
52618;SDS011;38513;53.234;6.568;2022-09-13T06:54:34;12.57;;;2.50;;
52618;SDS011;38513;53.234;6.568;2022-09-13T06:57:00;11.60;;;2.08;;
52618;SDS011;38513;53.234;6.568;2022-09-13T06:59:27;9.07;;;2.10;;
52618;SDS011;38513;53.234;6.568;2022-09-13T07:01:53;8.45;;;1.80;;
52618;SDS011;38513;53.234;6.568;2022-09-13T07:04:19;12.00;;;1.70;;
52618;SDS011;38513;53.234;6.568;2022-09-13T07:06:47;10.38;;;2.03;;
52618;SDS011;38513;53.234;6.568;2022-09-13T07:09:17;11.25;;;1.75;;
52618;SDS011;38513;53.234;6.568;2022-09-13T07:11:44;11.55;;;1.75;;
52618;SDS011;38513;53.234;6.568;2022-09-13T07:14:12;10.30;;;1.90;;
52618;SDS011;38513;53.234;6.568;2022-09-13T07:16:38;8.63;;;1.55;;
52618;SDS011;38513;53.234;6.568;2022-09-13T07:19:17;9.18;;;1.50;;
52618;SDS011;38513;53.234;6.568;2022-09-13T07:21:44;8.27;;;1.42;;
52618;SDS011;38513;53.234;6.568;2022-09-13T07:24:11;10.15;;;1.40;;
52618;SDS011;38513;53.234;6.568;2022-09-13T07:26:40;9.00;;;1.42;;
52618;SDS011;38513;53.234;6.568;2022-09-13T07:29:07;9.27;;;1.50;;
52618;SDS011;38513;53.234;6.568;2022-09-13T07:31:34;8.52;;;1.35;;
52618;SDS011;38513;53.234;6.568;2022-09-13T07:34:02;7.95;;;1.30;;
52618;SDS011;38513;53.234;6.568;2022-09-13T07:36:29;7.22;;;1.33;;
52618;SDS011;38513;53.234;6.568;2022-09-13T07:38:56;7.03;;;1.35;;
52618;SDS011;38513;53.234;6.568;2022-09-13T07:41:23;7.07;;;1.10;;
52618;SDS011;38513;53.234;6.568;2022-09-13T07:43:49;6.60;;;1.20;;
52618;SDS011;38513;53.234;6.568;2022-09-13T07:46:20;9.68;;;1.35;;
52618;SDS011;38513;53.234;6.568;2022-09-13T07:48:47;9.80;;;1.58;;
52618;SDS011;38513;53.234;6.568;2022-09-13T07:51:17;7.75;;;1.10;;
52618;SDS011;38513;53.234;6.568;2022-09-13T07:53:50;9.87;;;1.40;;
52618;SDS011;38513;53.234;6.568;2022-09-13T07:56:20;8.10;;;1.45;;
52618;SDS011;38513;53.234;6.568;2022-09-13T07:58:48;7.63;;;1.15;;
52618;SDS011;38513;53.234;6.568;2022-09-13T08:03:40;9.63;;;1.40;;
52618;SDS011;38513;53.234;6.568;2022-09-13T08:06:07;7.13;;;1.45;;
52618;SDS011;38513;53.234;6.568;2022-09-13T08:08:34;8.57;;;1.10;;
52618;SDS011;38513;53.234;6.568;2022-09-13T08:11:00;7.30;;;1.20;;
52618;SDS011;38513;53.234;6.568;2022-09-13T08:13:27;8.87;;;1.43;;
52618;SDS011;38513;53.234;6.568;2022-09-13T08:15:54;9.10;;;1.30;;
52618;SDS011;38513;53.234;6.568;2022-09-13T08:18:20;9.68;;;1.40;;
52618;SDS011;38513;53.234;6.568;2022-09-13T08:20:47;8.95;;;1.50;;
52618;SDS011;38513;53.234;6.568;2022-09-13T08:23:13;7.55;;;1.63;;
52618;SDS011;38513;53.234;6.568;2022-09-13T08:25:39;7.75;;;1.40;;
52618;SDS011;38513;53.234;6.568;2022-09-13T08:28:13;12.00;;;1.52;;
52618;SDS011;38513;53.234;6.568;2022-09-13T08:30:40;7.05;;;1.15;;
52618;SDS011;38513;53.234;6.568;2022-09-13T08:33:08;8.45;;;1.20;;
52618;SDS011;38513;53.234;6.568;2022-09-13T08:35:35;7.97;;;1.20;;
52618;SDS011;38513;53.234;6.568;2022-09-13T08:38:02;9.65;;;1.30;;
52618;SDS011;38513;53.234;6.568;2022-09-13T08:40:42;7.22;;;1.30;;
52618;SDS011;38513;53.234;6.568;2022-09-13T08:43:31;6.10;;;1.10;;
52618;SDS011;38513;53.234;6.568;2022-09-13T08:48:36;7.80;;;1.30;;
52618;SDS011;38513;53.234;6.568;2022-09-13T08:51:05;7.00;;;1.30;;
52618;SDS011;38513;53.234;6.568;2022-09-13T08:53:40;11.77;;;1.33;;
52618;SDS011;38513;53.234;6.568;2022-09-13T08:56:12;7.30;;;1.27;;
52618;SDS011;38513;53.234;6.568;2022-09-13T08:58:55;7.47;;;1.10;;
52618;SDS011;38513;53.234;6.568;2022-09-13T09:03:56;7.60;;;1.20;;
52618;SDS011;38513;53.234;6.568;2022-09-13T09:06:24;6.90;;;1.30;;
52618;SDS011;38513;53.234;6.568;2022-09-13T09:08:52;8.48;;;1.30;;
52618;SDS011;38513;53.234;6.568;2022-09-13T09:13:50;7.78;;;1.00;;
52618;SDS011;38513;53.234;6.568;2022-09-13T09:21:43;8.30;;;1.30;;
52618;SDS011;38513;53.234;6.568;2022-09-13T09:24:14;8.18;;;1.50;;
52618;SDS011;38513;53.234;6.568;2022-09-13T09:26:41;6.60;;;1.10;;
52618;SDS011;38513;53.234;6.568;2022-09-13T09:29:24;6.47;;;1.25;;
52618;SDS011;38513;53.234;6.568;2022-09-13T09:32:04;8.33;;;1.40;;
52618;SDS011;38513;53.234;6.568;2022-09-13T09:37:22;9.32;;;1.63;;
52618;SDS011;38513;53.234;6.568;2022-09-13T09:39:53;9.25;;;1.38;;
52618;SDS011;38513;53.234;6.568;2022-09-13T09:42:24;9.60;;;1.40;;
52618;SDS011;38513;53.234;6.568;2022-09-13T09:44:56;6.70;;;1.00;;
52618;SDS011;38513;53.234;6.568;2022-09-13T09:47:25;11.43;;;1.40;;
52618;SDS011;38513;53.234;6.568;2022-09-13T09:50:08;7.85;;;1.17;;
52618;SDS011;38513;53.234;6.568;2022-09-13T09:55:25;6.72;;;1.40;;
52618;SDS011;38513;53.234;6.568;2022-09-13T10:00:31;8.02;;;1.50;;
52618;SDS011;38513;53.234;6.568;2022-09-13T10:02:59;9.73;;;1.55;;
52618;SDS011;38513;53.234;6.568;2022-09-13T10:05:26;7.15;;;1.20;;
52618;SDS011;38513;53.234;6.568;2022-09-13T10:07:57;8.95;;;1.33;;
52618;SDS011;38513;53.234;6.568;2022-09-13T10:10:50;7.82;;;1.25;;
52618;SDS011;38513;53.234;6.568;2022-09-13T10:13:17;8.02;;;1.25;;
52618;SDS011;38513;53.234;6.568;2022-09-13T10:15:52;7.35;;;1.15;;
52618;SDS011;38513;53.234;6.568;2022-09-13T10:18:20;7.73;;;1.10;;
52618;SDS011;38513;53.234;6.568;2022-09-13T10:21:00;7.93;;;1.25;;
52618;SDS011;38513;53.234;6.568;2022-09-13T10:23:26;6.28;;;1.40;;
52618;SDS011;38513;53.234;6.568;2022-09-13T10:26:00;7.93;;;1.15;;
52618;SDS011;38513;53.234;6.568;2022-09-13T10:28:28;10.73;;;1.67;;
52618;SDS011;38513;53.234;6.568;2022-09-13T10:30:56;7.72;;;1.27;;
52618;SDS011;38513;53.234;6.568;2022-09-13T10:33:31;7.77;;;1.43;;
52618;SDS011;38513;53.234;6.568;2022-09-13T10:35:59;9.02;;;1.30;;
52618;SDS011;38513;53.234;6.568;2022-09-13T10:38:31;6.78;;;1.00;;
52618;SDS011;38513;53.234;6.568;2022-09-13T10:40:57;7.50;;;1.23;;
52618;SDS011;38513;53.234;6.568;2022-09-13T10:43:26;6.85;;;1.17;;
52618;SDS011;38513;53.234;6.568;2022-09-13T10:45:52;8.98;;;1.45;;
52618;SDS011;38513;53.234;6.568;2022-09-13T10:48:22;8.07;;;1.10;;
52618;SDS011;38513;53.234;6.568;2022-09-13T10:51:07;6.72;;;1.13;;
52618;SDS011;38513;53.234;6.568;2022-09-13T10:53:38;8.15;;;1.30;;
52618;SDS011;38513;53.234;6.568;2022-09-13T10:56:07;6.57;;;1.00;;
52618;SDS011;38513;53.234;6.568;2022-09-13T10:58:43;7.40;;;1.20;;
52618;SDS011;38513;53.234;6.568;2022-09-13T11:06:31;8.63;;;1.40;;
52618;SDS011;38513;53.234;6.568;2022-09-13T11:11:42;6.15;;;1.05;;
52618;SDS011;38513;53.234;6.568;2022-09-13T11:27:07;8.98;;;1.30;;
52618;SDS011;38513;53.234;6.568;2022-09-13T11:30:25;7.82;;;1.20;;
52618;SDS011;38513;53.234;6.568;2022-09-13T11:35:20;9.27;;;1.60;;
52618;SDS011;38513;53.234;6.568;2022-09-13T11:45:20;8.77;;;1.40;;
52618;SDS011;38513;53.234;6.568;2022-09-13T11:48:00;10.77;;;1.40;;
52618;SDS011;38513;53.234;6.568;2022-09-13T11:50:48;9.70;;;1.70;;
52618;SDS011;38513;53.234;6.568;2022-09-13T11:53:37;8.47;;;1.33;;
52618;SDS011;38513;53.234;6.568;2022-09-13T11:56:14;8.88;;;1.60;;
52618;SDS011;38513;53.234;6.568;2022-09-13T12:02:11;8.40;;;1.50;;
52618;SDS011;38513;53.234;6.568;2022-09-13T12:05:22;7.88;;;1.48;;
52618;SDS011;38513;53.234;6.568;2022-09-13T12:07:37;7.03;;;1.30;;
52618;SDS011;38513;53.234;6.568;2022-09-13T12:10:08;5.60;;;1.15;;
52618;SDS011;38513;53.234;6.568;2022-09-13T12:12:38;6.47;;;1.08;;
52618;SDS011;38513;53.234;6.568;2022-09-13T12:15:07;8.02;;;1.60;;
52618;SDS011;38513;53.234;6.568;2022-09-13T12:17:42;8.43;;;1.50;;
52618;SDS011;38513;53.234;6.568;2022-09-13T12:20:29;8.50;;;1.23;;
52618;SDS011;38513;53.234;6.568;2022-09-13T12:22:57;11.07;;;1.80;;
52618;SDS011;38513;53.234;6.568;2022-09-13T12:25:27;7.85;;;1.30;;
52618;SDS011;38513;53.234;6.568;2022-09-13T12:28:01;7.75;;;1.50;;
52618;SDS011;38513;53.234;6.568;2022-09-13T12:30:38;8.48;;;1.55;;
52618;SDS011;38513;53.234;6.568;2022-09-13T12:33:12;8.65;;;1.40;;
52618;SDS011;38513;53.234;6.568;2022-09-13T13:01:48;10.43;;;1.50;;
52618;SDS011;38513;53.234;6.568;2022-09-13T13:04:19;10.07;;;1.77;;
52618;SDS011;38513;53.234;6.568;2022-09-13T13:06:54;9.43;;;1.70;;
52618;SDS011;38513;53.234;6.568;2022-09-13T13:12:07;9.02;;;1.58;;
52618;SDS011;38513;53.234;6.568;2022-09-13T13:19:48;7.40;;;1.27;;
52618;SDS011;38513;53.234;6.568;2022-09-13T13:25:09;8.90;;;1.60;;
52618;SDS011;38513;53.234;6.568;2022-09-13T13:27:45;11.85;;;1.60;;
52618;SDS011;38513;53.234;6.568;2022-09-13T13:33:04;7.25;;;1.30;;
52618;SDS011;38513;53.234;6.568;2022-09-13T13:35:30;10.63;;;1.45;;
52618;SDS011;38513;53.234;6.568;2022-09-13T13:38:13;9.50;;;1.83;;
52618;SDS011;38513;53.234;6.568;2022-09-13T13:40:39;8.82;;;1.60;;
52618;SDS011;38513;53.234;6.568;2022-09-13T13:45:56;11.82;;;1.60;;
52618;SDS011;38513;53.234;6.568;2022-09-13T13:48:33;7.70;;;1.33;;
52618;SDS011;38513;53.234;6.568;2022-09-13T13:53:36;7.68;;;1.42;;
52618;SDS011;38513;53.234;6.568;2022-09-13T13:56:24;7.47;;;1.48;;
52618;SDS011;38513;53.234;6.568;2022-09-13T13:58:55;9.07;;;1.70;;
52618;SDS011;38513;53.234;6.568;2022-09-13T14:01:27;7.65;;;1.48;;
52618;SDS011;38513;53.234;6.568;2022-09-13T14:09:52;9.02;;;1.50;;
52618;SDS011;38513;53.234;6.568;2022-09-13T14:12:28;9.38;;;1.50;;
52618;SDS011;38513;53.234;6.568;2022-09-13T14:17:48;8.10;;;1.15;;
52618;SDS011;38513;53.234;6.568;2022-09-13T14:20:23;8.38;;;1.40;;
52618;SDS011;38513;53.234;6.568;2022-09-13T14:22:50;8.27;;;1.58;;
52618;SDS011;38513;53.234;6.568;2022-09-13T14:27:49;8.97;;;1.57;;
52618;SDS011;38513;53.234;6.568;2022-09-13T14:30:19;8.77;;;1.63;;
52618;SDS011;38513;53.234;6.568;2022-09-13T14:32:47;7.63;;;1.15;;
52618;SDS011;38513;53.234;6.568;2022-09-13T14:37:52;8.05;;;1.25;;
52618;SDS011;38513;53.234;6.568;2022-09-13T14:40:20;8.63;;;1.17;;
52618;SDS011;38513;53.234;6.568;2022-09-13T14:42:47;9.82;;;1.60;;
52618;SDS011;38513;53.234;6.568;2022-09-13T14:45:33;7.93;;;1.50;;
52618;SDS011;38513;53.234;6.568;2022-09-13T14:48:06;5.20;;;0.90;;
52618;SDS011;38513;53.234;6.568;2022-09-13T14:50:46;7.20;;;1.10;;
52618;SDS011;38513;53.234;6.568;2022-09-13T14:53:13;6.50;;;1.17;;
52618;SDS011;38513;53.234;6.568;2022-09-13T14:55:41;4.97;;;0.90;;
52618;SDS011;38513;53.234;6.568;2022-09-13T14:58:25;6.18;;;1.00;;
52618;SDS011;38513;53.234;6.568;2022-09-13T15:00:56;7.78;;;1.20;;
52618;SDS011;38513;53.234;6.568;2022-09-13T15:03:23;7.80;;;1.08;;
52618;SDS011;38513;53.234;6.568;2022-09-13T15:05:53;8.02;;;1.20;;
52618;SDS011;38513;53.234;6.568;2022-09-13T15:08:37;7.88;;;1.33;;
52618;SDS011;38513;53.234;6.568;2022-09-13T15:11:05;10.20;;;1.50;;
52618;SDS011;38513;53.234;6.568;2022-09-13T15:13:32;7.32;;;1.08;;
52618;SDS011;38513;53.234;6.568;2022-09-13T15:15:58;6.93;;;1.15;;
52618;SDS011;38513;53.234;6.568;2022-09-13T15:18:29;7.03;;;0.95;;
52618;SDS011;38513;53.234;6.568;2022-09-13T15:23:29;6.35;;;1.00;;
52618;SDS011;38513;53.234;6.568;2022-09-13T15:29:13;9.10;;;1.33;;
52618;SDS011;38513;53.234;6.568;2022-09-13T15:31:20;147.80;;;91.55;;
52618;SDS011;38513;53.234;6.568;2022-09-13T15:33:46;59.08;;;16.30;;
52618;SDS011;38513;53.234;6.568;2022-09-13T15:38:56;11.60;;;2.67;;
52618;SDS011;38513;53.234;6.568;2022-09-13T15:41:31;88.93;;;69.75;;
52618;SDS011;38513;53.234;6.568;2022-09-13T15:44:08;22.67;;;12.32;;
52618;SDS011;38513;53.234;6.568;2022-09-13T15:46:43;21.63;;;12.88;;
52618;SDS011;38513;53.234;6.568;2022-09-13T15:49:11;7.78;;;1.70;;
52618;SDS011;38513;53.234;6.568;2022-09-13T15:51:39;7.75;;;1.10;;
52618;SDS011;38513;53.234;6.568;2022-09-13T15:54:14;6.00;;;1.10;;
52618;SDS011;38513;53.234;6.568;2022-09-13T15:56:41;9.15;;;1.17;;
52618;SDS011;38513;53.234;6.568;2022-09-13T15:59:11;6.63;;;1.55;;
52618;SDS011;38513;53.234;6.568;2022-09-13T16:01:38;5.97;;;1.17;;
52618;SDS011;38513;53.234;6.568;2022-09-13T16:04:04;6.13;;;1.23;;
52618;SDS011;38513;53.234;6.568;2022-09-13T16:06:31;6.20;;;1.05;;
52618;SDS011;38513;53.234;6.568;2022-09-13T16:08:58;7.83;;;1.27;;
52618;SDS011;38513;53.234;6.568;2022-09-13T16:11:25;8.52;;;1.17;;
52618;SDS011;38513;53.234;6.568;2022-09-13T16:13:51;7.43;;;1.40;;
52618;SDS011;38513;53.234;6.568;2022-09-13T16:16:17;6.50;;;1.10;;
52618;SDS011;38513;53.234;6.568;2022-09-13T16:18:43;7.13;;;1.15;;
52618;SDS011;38513;53.234;6.568;2022-09-13T16:21:10;7.55;;;1.30;;
52618;SDS011;38513;53.234;6.568;2022-09-13T16:23:36;6.82;;;1.30;;
52618;SDS011;38513;53.234;6.568;2022-09-13T16:26:02;8.68;;;1.30;;
52618;SDS011;38513;53.234;6.568;2022-09-13T16:28:30;7.28;;;1.20;;
52618;SDS011;38513;53.234;6.568;2022-09-13T16:30:56;10.07;;;1.20;;
52618;SDS011;38513;53.234;6.568;2022-09-13T16:33:22;7.60;;;1.15;;
52618;SDS011;38513;53.234;6.568;2022-09-13T16:35:48;8.07;;;1.13;;
52618;SDS011;38513;53.234;6.568;2022-09-13T16:38:14;6.65;;;1.02;;
52618;SDS011;38513;53.234;6.568;2022-09-13T16:40:54;8.07;;;1.30;;
52618;SDS011;38513;53.234;6.568;2022-09-13T16:43:22;6.95;;;1.35;;
52618;SDS011;38513;53.234;6.568;2022-09-13T16:45:48;8.20;;;1.58;;
52618;SDS011;38513;53.234;6.568;2022-09-13T16:48:15;9.95;;;1.60;;
52618;SDS011;38513;53.234;6.568;2022-09-13T16:50:41;7.90;;;1.58;;
52618;SDS011;38513;53.234;6.568;2022-09-13T16:53:10;6.97;;;1.20;;
52618;SDS011;38513;53.234;6.568;2022-09-13T16:55:36;8.73;;;1.20;;
52618;SDS011;38513;53.234;6.568;2022-09-13T16:58:02;7.60;;;1.00;;
52618;SDS011;38513;53.234;6.568;2022-09-13T17:00:29;6.72;;;1.25;;
52618;SDS011;38513;53.234;6.568;2022-09-13T17:02:55;7.93;;;1.20;;
52618;SDS011;38513;53.234;6.568;2022-09-13T17:05:22;7.53;;;1.00;;
52618;SDS011;38513;53.234;6.568;2022-09-13T17:07:49;7.32;;;1.00;;
52618;SDS011;38513;53.234;6.568;2022-09-13T17:10:16;8.77;;;1.20;;
52618;SDS011;38513;53.234;6.568;2022-09-13T17:12:45;7.57;;;1.10;;
52618;SDS011;38513;53.234;6.568;2022-09-13T17:15:12;6.80;;;0.98;;
52618;SDS011;38513;53.234;6.568;2022-09-13T17:17:38;4.78;;;0.95;;
52618;SDS011;38513;53.234;6.568;2022-09-13T17:20:05;6.50;;;1.00;;
52618;SDS011;38513;53.234;6.568;2022-09-13T17:22:34;6.30;;;0.85;;
52618;SDS011;38513;53.234;6.568;2022-09-13T17:25:01;6.07;;;0.90;;
52618;SDS011;38513;53.234;6.568;2022-09-13T17:27:27;6.00;;;0.88;;
52618;SDS011;38513;53.234;6.568;2022-09-13T17:29:53;10.63;;;1.08;;
52618;SDS011;38513;53.234;6.568;2022-09-13T17:32:19;6.22;;;1.13;;
52618;SDS011;38513;53.234;6.568;2022-09-13T17:34:49;6.82;;;0.93;;
52618;SDS011;38513;53.234;6.568;2022-09-13T17:37:15;6.80;;;1.07;;
52618;SDS011;38513;53.234;6.568;2022-09-13T17:39:41;6.20;;;1.20;;
52618;SDS011;38513;53.234;6.568;2022-09-13T17:42:10;8.23;;;1.40;;
52618;SDS011;38513;53.234;6.568;2022-09-13T17:44:37;5.70;;;1.27;;
52618;SDS011;38513;53.234;6.568;2022-09-13T17:47:03;7.70;;;1.17;;
52618;SDS011;38513;53.234;6.568;2022-09-13T17:49:30;6.15;;;1.15;;
52618;SDS011;38513;53.234;6.568;2022-09-13T17:51:56;5.78;;;1.08;;
52618;SDS011;38513;53.234;6.568;2022-09-13T17:54:22;5.95;;;1.02;;
52618;SDS011;38513;53.234;6.568;2022-09-13T17:56:55;6.63;;;1.17;;
52618;SDS011;38513;53.234;6.568;2022-09-13T17:59:21;5.47;;;1.10;;
52618;SDS011;38513;53.234;6.568;2022-09-13T18:01:48;6.38;;;1.65;;
52618;SDS011;38513;53.234;6.568;2022-09-13T18:04:16;5.55;;;1.10;;
52618;SDS011;38513;53.234;6.568;2022-09-13T18:06:43;5.75;;;1.00;;
52618;SDS011;38513;53.234;6.568;2022-09-13T18:09:10;7.40;;;1.10;;
52618;SDS011;38513;53.234;6.568;2022-09-13T18:11:36;9.27;;;1.65;;
52618;SDS011;38513;53.234;6.568;2022-09-13T18:14:03;6.75;;;1.08;;